Time;durP1;ratioP1;P1;durP2;ratioP2;P2;SDS_P1;SDS_P2;PMS_P1;PMS_P2;Temp;Humidity;BMP_temperature;BMP_pressure;BME280_temperature;BME280_humidity;BME280_pressure;Samples;Min_cycle;Max_cycle;Signal;HPM_P1;HPM_P2
2022/11/14 09:48:21;;;;;;;20.80;15.67;;;;;;;7.65;100.00;98889.06;5158401;27;21199;-76
2022/11/14 09:51:10;;;;;;;20.77;16.07;;;;;;;8.29;100.00;98900.63;5148331;27;38847;-78
2022/11/14 09:54:05;;;;;;;21.50;16.10;;;;;;;8.89;94.03;98898.31;5148817;27;41700;-79
2022/11/14 09:56:51;;;;;;;18.17;13.57;;;;;;;9.37;89.68;98891.22;5149319;27;42669;-80
2022/11/14 09:59:37;;;;;;;17.67;12.80;;;;;;;9.72;86.19;98900.59;5149464;27;41434;-77
2022/11/14 10:02:36;;;;;;;18.80;12.67;;;;;;;9.92;82.21;98911.78;5148826;27;41368;-78
2022/11/14 10:05:39;;;;;;;15.47;12.17;;;;;;;10.04;80.99;98917.22;5150261;27;41653;-84
2022/11/14 10:08:43;;;;;;;11.53;10.10;;;;;;;10.14;78.94;98929.94;5148885;27;44400;-80
2022/11/14 10:11:33;;;;;;;12.50;9.63;;;;;;;10.30;78.00;98923.63;5147777;27;42818;-80
2022/11/14 10:14:52;;;;;;;11.60;9.77;;;;;;;10.63;76.79;98930.50;5148977;27;40164;-77
2022/11/14 10:17:55;;;;;;;10.53;8.87;;;;;;;10.80;75.14;98938.22;5148815;27;41868;-84
2022/11/14 10:20:48;;;;;;;11.47;9.70;;;;;;;10.95;73.80;98937.28;5148054;27;41515;-76
2022/11/14 10:23:44;;;;;;;9.80;8.80;;;;;;;11.07;73.63;98909.16;5147979;27;41866;-84
2022/11/14 10:26:31;;;;;;;9.87;8.77;;;;;;;11.29;72.51;98924.53;5147720;27;39125;-85
2022/11/14 10:29:51;;;;;;;9.87;8.53;;;;;;;11.57;71.65;98924.44;5148903;27;40568;-82
2022/11/14 10:33:06;;;;;;;10.20;8.47;;;;;;;11.95;70.39;98926.41;5146097;27;41910;-84
2022/11/14 10:36:00;;;;;;;10.93;9.37;;;;;;;12.14;69.31;98937.47;5148065;27;40924;-79
2022/11/14 10:38:54;;;;;;;8.93;8.03;;;;;;;12.19;69.31;98928.25;5145639;27;40448;-77
2022/11/14 10:41:41;;;;;;;8.50;7.63;;;;;;;12.27;69.19;98941.00;5158036;27;42476;-82
2022/11/14 10:44:34;;;;;;;8.13;7.33;;;;;;;13.67;67.05;98933.69;5146469;27;42864;-82
2022/11/14 10:47:24;;;;;;;8.93;8.03;;;;;;;15.19;61.17;98953.09;5146297;27;42320;-81
2022/11/14 10:50:18;;;;;;;8.70;7.90;;;;;;;16.05;58.53;98961.16;5149211;27;40734;-79
2022/11/14 10:53:16;;;;;;;12.23;8.93;;;;;;;16.41;56.10;98971.44;5157961;27;41182;-83
2022/11/14 10:56:01;;;;;;;9.43;8.33;;;;;;;16.68;53.69;98975.44;5161930;27;42884;-83
2022/11/14 10:58:47;;;;;;;9.83;8.83;;;;;;;16.21;55.02;98966.03;5138702;27;42501;-82
2022/11/14 11:01:37;;;;;;;10.40;8.57;;;;;;;15.69;55.89;98949.03;5133229;27;39400;-78
2022/11/14 11:04:27;;;;;;;9.83;8.83;;;;;;;15.44;56.04;98929.63;5131858;27;41946;-78
2022/11/14 11:13:33;;;;;;;9.53;8.63;;;;;;;16.14;52.35;98961.22;5133128;27;39089;-78
2022/11/14 11:16:22;;;;;;;9.50;8.53;;;;;;;15.55;53.71;98947.47;5131786;27;42763;-77
2022/11/14 11:19:15;;;;;;;9.40;8.47;;;;;;;15.65;54.24;98936.88;5130525;27;43012;-79
2022/11/14 11:22:01;;;;;;;8.47;7.67;;;;;;;15.38;54.58;98948.81;5132326;27;41065;-79
2022/11/14 11:24:47;;;;;;;9.27;8.37;;;;;;;16.00;53.10;98963.34;5134867;27;39989;-79
2022/11/14 11:27:35;;;;;;;10.07;8.13;;;;;;;16.83;52.08;98958.06;5131949;27;42250;-77
2022/11/14 11:30:23;;;;;;;9.03;8.07;;;;;;;17.81;49.67;98967.16;5132901;27;43975;-79
2022/11/14 11:33:17;;;;;;;8.47;7.53;;;;;;;20.93;46.09;98995.94;5132218;27;42166;-78
2022/11/14 11:36:07;;;;;;;8.90;8.20;;;;;;;23.50;40.17;99021.09;5131331;27;40005;-78
2022/11/14 11:38:53;;;;;;;7.63;6.93;;;;;;;25.08;35.91;99035.09;5133103;27;41494;-79
2022/11/14 11:41:40;;;;;;;7.60;6.90;;;;;;;26.92;34.92;99014.03;5131942;27;44080;-78
2022/11/14 11:44:35;;;;;;;7.30;6.70;;;;;;;28.55;32.69;99023.31;5133704;27;41483;-80
2022/11/14 11:47:21;;;;;;;8.37;7.77;;;;;;;30.01;30.38;99024.91;5131341;27;38976;-78
2022/11/14 11:50:15;;;;;;;7.73;6.93;;;;;;;30.79;27.19;99038.34;5134205;27;41811;-81
2022/11/14 11:53:18;;;;;;;7.77;7.10;;;;;;;27.99;30.54;99001.75;5132436;27;42024;-79
2022/11/14 11:56:09;;;;;;;7.80;6.90;;;;;;;25.48;31.74;98992.28;5132799;27;40915;-79
2022/11/14 11:59:03;;;;;;;7.17;6.57;;;;;;;23.66;34.60;98967.00;5132643;27;40255;-84
2022/11/14 12:01:52;;;;;;;7.33;6.60;;;;;;;22.39;36.95;98957.94;5131830;27;40832;-78
2022/11/14 12:04:38;;;;;;;7.10;6.50;;;;;;;21.28;39.16;98926.81;5133891;27;44203;-78
2022/11/14 12:07:31;;;;;;;7.87;7.13;;;;;;;20.49;40.20;98925.16;5131660;27;42028;-82
2022/11/14 12:10:22;;;;;;;6.93;6.30;;;;;;;19.82;41.85;98917.63;5132121;27;38573;-79
2022/11/14 12:13:42;;;;;;;7.70;7.00;;;;;;;19.23;43.42;98908.22;5131717;27;40925;-80
2022/11/14 12:16:47;;;;;;;8.77;7.93;;;;;;;18.64;44.41;98875.44;5132217;27;43201;-79
2022/11/14 12:20:02;;;;;;;8.57;7.80;;;;;;;18.16;44.86;98880.88;5133210;27;43419;-78
2022/11/14 12:23:07;;;;;;;7.70;7.00;;;;;;;17.50;46.50;98882.50;5109347;27;39690;-78
2022/11/14 12:26:05;;;;;;;8.13;7.33;;;;;;;17.05;47.52;98874.13;5131826;27;40427;-82
2022/11/14 12:29:07;;;;;;;8.83;8.03;;;;;;;16.78;48.38;98867.53;5132287;27;42037;-77
2022/11/14 12:31:58;;;;;;;8.50;7.63;;;;;;;16.50;49.19;98860.19;5132744;27;42014;-78
2022/11/14 12:34:47;;;;;;;7.53;6.83;;;;;;;16.79;49.38;98855.84;5132429;27;40048;-75
2022/11/14 12:37:36;;;;;;;8.00;7.20;;;;;;;16.57;49.55;98855.97;5132072;27;41547;-77
2022/11/14 12:40:29;;;;;;;8.20;7.50;;;;;;;16.40;50.34;98853.94;5130548;27;42820;-83
2022/11/14 12:43:30;;;;;;;7.50;6.80;;;;;;;16.95;49.22;98851.81;5131623;27;41943;-78
2022/11/14 12:46:16;;;;;;;6.87;6.27;;;;;;;16.65;49.68;98848.19;5139229;27;39980;-78
2022/11/14 12:49:39;;;;;;;8.13;7.33;;;;;;;16.34;50.44;98849.97;5134749;27;41646;-75
2022/11/14 12:52:55;;;;;;;7.27;6.57;;;;;;;16.13;51.36;98839.31;5130971;27;43039;-79
2022/11/14 12:55:58;;;;;;;7.37;6.60;;;;;;;15.86;51.76;98811.41;5131195;27;41394;-79
2022/11/14 12:59:15;;;;;;;7.90;7.10;;;;;;;15.79;52.70;98816.44;5129462;27;39820;-77
2022/11/14 13:02:28;;;;;;;8.20;7.40;;;;;;;15.40;53.58;98810.75;5130640;27;40555;-80
2022/11/14 13:05:29;;;;;;;8.20;7.40;;;;;;;15.27;53.91;98794.06;5131750;27;42145;-79
2022/11/14 13:08:39;;;;;;;7.30;6.63;;;;;;;15.32;54.71;98797.22;5132488;27;41924;-79
2022/11/14 13:25:09;;;;;;;7.13;6.43;;;;;;;14.82;57.13;98769.34;5130612;27;39569;-79
2022/11/14 13:27:59;;;;;;;7.53;6.73;;;;;;;14.77;57.28;98766.19;5130726;27;41404;-79
2022/11/14 13:31:17;;;;;;;8.10;6.40;;;;;;;14.81;57.73;98758.81;5131932;27;42790;-79
2022/11/14 13:34:32;;;;;;;8.20;7.40;;;;;;;15.06;57.03;98766.50;5131067;27;41981;-80
2022/11/14 13:37:40;;;;;;;8.93;7.07;;;;;;;15.17;56.60;98771.78;5131279;27;40775;-80
2022/11/14 13:40:32;;;;;;;7.17;6.03;;;;;;;15.14;56.78;98766.69;5132725;27;41761;-78
2022/11/14 13:43:29;;;;;;;8.43;7.53;;;;;;;15.10;57.15;98730.56;5130983;27;43204;-82
2022/11/14 13:46:30;;;;;;;6.70;6.00;;;;;;;15.44;57.10;98740.16;5129426;27;43698;-79
2022/11/14 13:49:32;;;;;;;8.03;7.23;;;;;;;16.28;55.20;98753.44;5129384;27;39723;-82
2022/11/14 13:52:19;;;;;;;7.77;6.57;;;;;;;16.85;53.72;98753.66;5129931;27;40791;-80
2022/11/14 13:55:06;;;;;;;6.53;5.63;;;;;;;17.41;52.80;98760.19;5131195;27;41590;-76
2022/11/14 13:58:10;;;;;;;6.73;6.13;;;;;;;18.28;50.22;98777.84;5131200;27;41781;-78
2022/11/14 14:01:08;;;;;;;6.97;6.23;;;;;;;18.76;49.17;98782.19;5136733;27;40178;-78
2022/11/14 14:04:09;;;;;;;5.73;5.17;;;;;;;19.23;49.39;98779.34;5133653;27;40667;-78
2022/11/14 14:07:07;;;;;;;7.00;5.60;;;;;;;19.57;48.27;98776.84;5129074;27;42639;-76
2022/11/14 14:10:04;;;;;;;6.40;5.80;;;;;;;19.74;47.74;98778.69;5130430;27;41585;-77
2022/11/14 14:13:07;;;;;;;6.60;5.90;;;;;;;19.60;47.43;98765.78;5130865;27;40959;-76
2022/11/14 14:16:04;;;;;;;6.87;5.83;;;;;;;18.91;48.18;98748.50;5131122;27;42696;-75
2022/11/14 14:19:00;;;;;;;7.17;5.77;;;;;;;18.56;48.91;98765.28;5131183;27;43084;-79
2022/11/14 14:21:56;;;;;;;7.73;5.47;;;;;;;17.87;49.92;98746.91;5129850;27;41197;-78
2022/11/14 14:24:54;;;;;;;7.13;6.43;;;;;;;17.29;50.86;98756.81;5130408;27;40366;-77
2022/11/14 14:27:52;;;;;;;6.07;5.40;;;;;;;16.67;51.75;98727.72;5128998;27;40639;-79
2022/11/14 14:31:00;;;;;;;6.93;6.17;;;;;;;16.26;52.73;98734.88;5131098;27;43786;-79
2022/11/14 14:33:49;;;;;;;5.40;4.90;;;;;;;15.85;53.88;98735.78;5132039;27;42960;-78
2022/11/14 14:36:49;;;;;;;5.87;5.33;;;;;;;15.59;54.90;98718.47;5133237;27;40974;-78
2022/11/14 14:39:35;;;;;;;6.07;5.33;;;;;;;15.34;56.20;98709.84;5132405;27;42740;-80
2022/11/14 14:42:24;;;;;;;6.60;5.80;;;;;;;15.10;56.78;98704.75;5137549;27;42178;-77
2022/11/14 14:45:26;;;;;;;7.47;6.67;;;;;;;14.81;57.83;98695.69;5154066;27;42399;-78
2022/11/14 14:48:16;;;;;;;6.13;5.53;;;;;;;14.70;57.96;98695.72;5146252;27;40026;-77
2022/11/14 14:51:03;;;;;;;8.57;6.07;;;;;;;14.57;58.30;98687.88;5155333;27;42781;-77
2022/11/14 14:53:52;;;;;;;6.13;5.47;;;;;;;14.44;58.72;98691.66;5151166;27;46175;-78
2022/11/14 14:56:38;;;;;;;8.13;6.77;;;;;;;14.25;59.65;98686.91;5151444;27;43162;-77
2022/11/14 14:59:25;;;;;;;6.87;5.87;;;;;;;14.08;59.53;98690.09;5135932;27;40103;-78
2022/11/14 15:02:16;;;;;;;6.17;5.57;;;;;;;13.77;60.77;98660.56;5150657;27;40999;-77
2022/11/14 15:05:05;;;;;;;7.53;5.90;;;;;;;13.71;60.97;98671.69;5152995;27;42782;-78
2022/11/14 15:07:55;;;;;;;10.00;6.43;;;;;;;13.46;61.17;98661.25;5155323;27;42451;-77
2022/11/14 15:10:42;;;;;;;10.60;7.27;;;;;;;13.42;62.52;98675.75;5151274;27;40966;-77
2022/11/14 15:13:30;;;;;;;8.07;6.37;;;;;;;13.26;62.51;98681.38;5153869;27;40565;-77
2022/11/14 15:16:16;;;;;;;6.60;5.60;;;;;;;13.11;62.45;98671.88;5153573;27;42691;-76
2022/11/14 15:19:04;;;;;;;8.33;5.57;;;;;;;12.87;62.64;98645.34;5134738;27;42079;-77
2022/11/14 15:22:05;;;;;;;7.47;4.80;;;;;;;12.81;62.72;98665.28;5146739;27;38388;-75
2022/11/14 15:25:23;;;;;;;5.73;4.67;;;;;;;12.64;62.94;98667.47;5133389;27;43482;-75
2022/11/14 15:28:15;;;;;;;9.30;5.97;;;;;;;12.45;63.60;98660.88;5089022;28;42875;-77
2022/11/14 15:31:03;;;;;;;8.30;5.60;;;;;;;12.22;64.04;98643.97;5060214;28;43726;-78
2022/11/14 15:34:02;;;;;;;8.77;5.57;;;;;;;12.10;64.20;98654.63;5074053;28;39154;-82
2022/11/14 15:37:22;;;;;;;9.77;6.47;;;;;;;12.06;65.46;98669.06;5134462;27;40738;-83
2022/11/14 15:40:18;;;;;;;10.87;7.23;;;;;;;11.88;66.41;98658.78;5134848;27;42549;-76
2022/11/14 15:43:36;;;;;;;9.77;7.03;;;;;;;11.81;66.33;98668.16;5143938;27;42192;-76
2022/11/14 15:46:37;;;;;;;8.97;6.30;;;;;;;11.68;66.33;98661.97;5153628;27;39775;-82
2022/11/14 15:49:25;;;;;;;9.27;6.63;;;;;;;11.57;66.27;98675.13;5134071;27;40902;-80
2022/11/14 15:52:23;;;;;;;8.30;5.90;;;;;;;11.49;66.40;98666.88;5149584;27;42830;-80
2022/11/14 15:55:14;;;;;;;6.60;5.57;;;;;;;11.39;66.00;98665.78;5155328;27;41983;-84
2022/11/14 15:58:01;;;;;;;8.10;6.53;;;;;;;11.24;66.97;98664.19;5143214;27;38608;-83
2022/11/14 16:00:50;;;;;;;7.67;5.90;;;;;;;11.18;66.57;98677.84;5151342;27;42853;-77
2022/11/14 16:03:36;;;;;;;9.03;6.87;;;;;;;11.04;66.23;98677.00;5153145;27;42871;-79
2022/11/14 16:06:23;;;;;;;7.03;6.10;;;;;;;10.97;66.96;98673.06;5153776;27;43351;-87
2022/11/14 16:09:15;;;;;;;7.53;5.90;;;;;;;10.92;67.27;98677.81;5134888;27;40019;-82
2022/11/14 16:12:01;;;;;;;8.77;7.00;;;;;;;10.87;66.70;98687.88;5147154;27;40824;-77
2022/11/14 16:14:48;;;;;;;7.63;6.60;;;;;;;10.72;66.87;98667.69;5154243;27;41782;-81
2022/11/14 16:17:38;;;;;;;8.47;7.07;;;;;;;10.78;67.22;98680.53;5153209;27;42632;-82
2022/11/14 16:20:27;;;;;;;9.00;7.30;;;;;;;10.73;67.86;98672.03;5153902;27;40534;-81
2022/11/14 16:23:13;;;;;;;15.73;8.00;;;;;;;10.73;68.24;98677.34;5149344;27;41645;-77
2022/11/14 16:25:59;;;;;;;9.93;7.70;;;;;;;10.71;68.14;98676.59;5139624;27;41619;-82
2022/11/14 16:28:45;;;;;;;8.83;6.33;;;;;;;10.73;68.67;98678.19;5149693;27;42086;-82
2022/11/14 16:31:33;;;;;;;7.30;5.47;;;;;;;10.71;68.99;98673.94;5153301;27;40532;-80
2022/11/14 16:34:22;;;;;;;8.40;5.53;;;;;;;10.67;68.87;98681.22;5153403;27;40760;-78
2022/11/14 16:37:12;;;;;;;7.40;5.20;;;;;;;10.51;68.77;98650.59;5153534;27;42823;-80
2022/11/14 16:39:58;;;;;;;9.70;6.40;;;;;;;10.69;68.97;98681.13;5154495;27;42254;-78
2022/11/14 16:42:45;;;;;;;10.40;7.03;;;;;;;10.75;68.89;98680.75;5153060;27;41457;-76
2022/11/14 16:45:31;;;;;;;13.67;7.23;;;;;;;10.82;68.70;98687.31;5153543;27;40933;-79
2022/11/14 16:48:18;;;;;;;12.43;7.87;;;;;;;10.88;68.60;98689.56;5153154;27;42509;-84
2022/11/14 16:51:05;;;;;;;12.87;8.07;;;;;;;10.94;68.16;98690.97;5152428;27;42631;-81
2022/11/14 16:53:54;;;;;;;12.80;7.20;;;;;;;10.95;68.39;98693.50;5152675;27;38993;-81
2022/11/14 16:56:42;;;;;;;10.60;6.50;;;;;;;10.95;68.45;98703.25;5151700;27;42141;-80
2022/11/14 16:59:28;;;;;;;10.57;7.23;;;;;;;10.86;68.31;98696.78;5150458;27;43763;-80
2022/11/14 17:02:15;;;;;;;8.57;6.33;;;;;;;10.75;68.77;98686.91;5152847;27;42438;-82
2022/11/14 17:05:03;;;;;;;10.63;7.47;;;;;;;10.68;69.17;98690.88;5152948;27;39003;-79
2022/11/14 17:07:49;;;;;;;9.53;7.00;;;;;;;10.58;69.35;98678.34;5153614;27;41965;-77
2022/11/14 17:10:40;;;;;;;9.47;7.87;;;;;;;10.52;69.52;98687.53;5150356;27;42755;-79
2022/11/14 17:13:30;;;;;;;10.07;7.40;;;;;;;10.41;70.32;98679.44;5152566;27;41465;-83
2022/11/14 17:16:16;;;;;;;6.87;5.80;;;;;;;10.32;70.54;98687.97;5152991;27;39373;-84
2022/11/14 17:19:02;;;;;;;8.97;6.13;;;;;;;10.24;70.48;98691.13;5150638;27;41578;-81
2022/11/14 17:21:50;;;;;;;10.83;6.00;;;;;;;10.16;71.40;98687.19;5152552;27;43040;-78
2022/11/14 17:24:36;;;;;;;7.80;5.90;;;;;;;10.14;72.02;98689.94;5133037;27;41981;-76
2022/11/14 17:27:23;;;;;;;7.27;5.77;;;;;;;10.13;72.45;98690.91;5148612;27;40893;-80
2022/11/14 17:30:11;;;;;;;6.83;5.67;;;;;;;10.12;72.67;98691.88;5138972;27;42213;-78
2022/11/14 17:32:57;;;;;;;9.50;6.17;;;;;;;10.15;73.42;98694.28;5132373;27;44250;-80
2022/11/14 17:35:43;;;;;;;8.87;6.90;;;;;;;10.19;73.71;98687.06;5129638;27;43152;-80
2022/11/14 17:38:33;;;;;;;6.97;5.50;;;;;;;10.21;73.36;98682.50;5132178;27;38743;-80
2022/11/14 17:41:19;;;;;;;7.50;5.07;;;;;;;10.28;72.88;98692.59;5132780;27;41674;-81
2022/11/14 17:44:08;;;;;;;8.20;5.33;;;;;;;10.33;73.41;98695.81;5132975;27;42615;-78
2022/11/14 17:46:54;;;;;;;8.97;5.67;;;;;;;10.27;72.93;98680.31;5130526;27;43110;-78
2022/11/14 17:49:40;;;;;;;5.10;4.50;;;;;;;10.47;72.93;98692.28;5131239;27;39170;-77
2022/11/14 17:52:26;;;;;;;6.83;5.03;;;;;;;10.56;74.13;98685.53;5131742;27;41966;-77
2022/11/14 17:55:14;;;;;;;6.17;4.87;;;;;;;10.63;74.06;98690.31;5132459;27;43627;-78
2022/11/14 17:58:01;;;;;;;6.40;5.13;;;;;;;10.72;74.41;98691.53;5131105;27;41690;-78
2022/11/14 18:00:51;;;;;;;6.07;4.67;;;;;;;10.72;74.19;98673.84;5129044;27;40563;-78
2022/11/14 18:03:37;;;;;;;7.27;5.67;;;;;;;10.96;74.46;98694.34;5131299;27;40774;-78
2022/11/14 18:06:24;;;;;;;6.50;5.40;;;;;;;11.03;74.18;98696.47;5130056;27;42771;-78
2022/11/14 18:09:10;;;;;;;5.23;4.73;;;;;;;11.16;74.08;98697.38;5133574;27;41097;-77
2022/11/14 18:11:58;;;;;;;4.90;3.90;;;;;;;11.24;73.95;98693.38;5134433;27;38872;-78
2022/11/14 18:14:44;;;;;;;6.80;4.43;;;;;;;11.34;73.47;98699.72;5133018;27;42783;-79
2022/11/14 18:17:30;;;;;;;5.67;4.03;;;;;;;11.40;73.92;98696.66;5135142;27;43063;-78
2022/11/14 18:20:16;;;;;;;5.57;4.30;;;;;;;11.47;73.76;98695.28;5134850;27;42278;-78
2022/11/14 18:23:02;;;;;;;5.03;4.27;;;;;;;11.53;73.53;98697.50;5134707;27;40087;-78
2022/11/14 18:25:48;;;;;;;6.73;5.67;;;;;;;11.54;73.70;98696.56;5134834;27;40433;-76
2022/11/14 18:28:36;;;;;;;6.37;5.77;;;;;;;11.56;73.66;98705.25;5135551;27;42661;-78
2022/11/14 18:31:23;;;;;;;7.83;5.80;;;;;;;11.60;73.65;98695.28;5134980;27;42985;-77
2022/11/14 18:34:09;;;;;;;6.17;4.80;;;;;;;11.61;74.03;98703.16;5133659;27;41054;-78
2022/11/14 18:36:55;;;;;;;4.93;4.00;;;;;;;11.67;74.28;98697.41;5134797;27;42008;-78
2022/11/14 18:39:42;;;;;;;4.70;3.77;;;;;;;11.74;73.99;98688.09;5133426;27;42902;-78
2022/11/14 18:42:28;;;;;;;5.13;3.10;;;;;;;11.74;74.54;98677.47;5134667;27;43074;-77
2022/11/14 18:45:16;;;;;;;4.33;2.97;;;;;;;11.76;74.69;98680.03;5134943;27;38919;-77
2022/11/14 18:48:02;;;;;;;5.23;3.23;;;;;;;11.87;74.25;98680.97;5133843;27;40670;-77
2022/11/14 18:50:48;;;;;;;3.50;3.20;;;;;;;11.95;73.95;98684.91;5134348;27;43018;-77
2022/11/14 18:53:36;;;;;;;3.33;3.03;;;;;;;12.00;73.37;98682.75;5134493;27;42352;-76
2022/11/14 18:56:24;;;;;;;3.73;2.43;;;;;;;12.05;72.51;98681.47;5132889;27;40906;-77
2022/11/14 18:59:10;;;;;;;3.30;2.73;;;;;;;12.15;72.22;98671.88;5134369;27;40876;-77
2022/11/14 19:01:58;;;;;;;3.67;3.00;;;;;;;12.32;71.98;98689.28;5135341;27;43577;-76
2022/11/14 19:04:45;;;;;;;3.03;2.73;;;;;;;12.37;72.50;98691.56;5135305;27;43055;-78
2022/11/14 19:07:31;;;;;;;5.40;2.90;;;;;;;12.40;71.78;98692.22;5134943;27;40018;-77
2022/11/14 19:10:18;;;;;;;4.20;2.87;;;;;;;12.44;71.80;98693.69;5133977;27;40816;-77
2022/11/14 19:13:04;;;;;;;3.87;2.80;;;;;;;12.39;71.48;98681.69;5135296;27;43134;-78
2022/11/14 19:15:51;;;;;;;4.90;3.20;;;;;;;12.34;71.70;98697.13;5133208;27;41500;-77
2022/11/14 19:18:38;;;;;;;3.33;2.50;;;;;;;12.25;71.97;98693.31;5133616;27;40314;-78
2022/11/14 19:21:26;;;;;;;2.60;2.10;;;;;;;12.11;72.07;98693.47;5133867;27;40683;-76
2022/11/14 19:24:12;;;;;;;2.63;2.43;;;;;;;12.01;72.03;98695.06;5131625;27;43658;-77
2022/11/14 19:26:58;;;;;;;2.93;2.40;;;;;;;11.91;72.11;98691.38;5133791;27;42259;-76
2022/11/14 19:29:45;;;;;;;3.20;2.70;;;;;;;11.85;72.22;98695.31;5133937;27;38934;-77
2022/11/14 19:32:32;;;;;;;3.20;2.47;;;;;;;11.77;72.38;98702.94;5133363;27;40416;-77
2022/11/14 19:35:20;;;;;;;5.77;3.33;;;;;;;11.66;72.69;98711.63;5131747;27;43577;-76
